sensor_id;sensor_type;location;lat;lon;timestamp;P1;durP1;ratioP1;P2;durP2;ratioP2
32365;SDS011;18837;46.832;16.838;2022-07-23T00:00:02;4.03;;;3.60;;
32365;SDS011;18837;46.832;16.838;2022-07-23T00:02:29;4.03;;;3.57;;
32365;SDS011;18837;46.832;16.838;2022-07-23T00:04:54;4.73;;;4.07;;
32365;SDS011;18837;46.832;16.838;2022-07-23T00:10:10;4.50;;;4.00;;
32365;SDS011;18837;46.832;16.838;2022-07-23T00:12:36;3.83;;;3.53;;
32365;SDS011;18837;46.832;16.838;2022-07-23T00:15:04;4.50;;;3.83;;
32365;SDS011;18837;46.832;16.838;2022-07-23T00:17:31;4.10;;;3.67;;
32365;SDS011;18837;46.832;16.838;2022-07-23T00:19:57;4.00;;;3.70;;
32365;SDS011;18837;46.832;16.838;2022-07-23T00:22:22;4.20;;;3.90;;
32365;SDS011;18837;46.832;16.838;2022-07-23T00:24:48;4.20;;;3.80;;
32365;SDS011;18837;46.832;16.838;2022-07-23T00:27:16;4.97;;;3.83;;
32365;SDS011;18837;46.832;16.838;2022-07-23T00:29:42;4.13;;;3.80;;
32365;SDS011;18837;46.832;16.838;2022-07-23T00:32:07;4.03;;;3.73;;
32365;SDS011;18837;46.832;16.838;2022-07-23T00:34:33;3.97;;;3.27;;
32365;SDS011;18837;46.832;16.838;2022-07-23T00:36:59;4.57;;;4.17;;
32365;SDS011;18837;46.832;16.838;2022-07-23T00:39:24;4.30;;;3.90;;
32365;SDS011;18837;46.832;16.838;2022-07-23T00:41:51;4.37;;;3.50;;
32365;SDS011;18837;46.832;16.838;2022-07-23T00:44:22;4.07;;;3.67;;
32365;SDS011;18837;46.832;16.838;2022-07-23T00:46:50;3.73;;;3.43;;
32365;SDS011;18837;46.832;16.838;2022-07-23T00:49:21;4.20;;;3.80;;
32365;SDS011;18837;46.832;16.838;2022-07-23T00:51:48;4.03;;;3.73;;
32365;SDS011;18837;46.832;16.838;2022-07-23T00:54:15;4.40;;;4.00;;
32365;SDS011;18837;46.832;16.838;2022-07-23T00:56:45;4.37;;;3.80;;
32365;SDS011;18837;46.832;16.838;2022-07-23T00:59:12;3.67;;;3.37;;
32365;SDS011;18837;46.832;16.838;2022-07-23T01:01:38;4.20;;;3.70;;
32365;SDS011;18837;46.832;16.838;2022-07-23T01:04:04;3.87;;;3.47;;
32365;SDS011;18837;46.832;16.838;2022-07-23T01:06:31;3.60;;;3.40;;
32365;SDS011;18837;46.832;16.838;2022-07-23T01:09:01;4.20;;;3.90;;
32365;SDS011;18837;46.832;16.838;2022-07-23T01:11:28;3.43;;;3.13;;
32365;SDS011;18837;46.832;16.838;2022-07-23T01:13:55;4.03;;;3.73;;
32365;SDS011;18837;46.832;16.838;2022-07-23T01:16:23;3.80;;;3.50;;
32365;SDS011;18837;46.832;16.838;2022-07-23T01:22:06;4.17;;;3.27;;
32365;SDS011;18837;46.832;16.838;2022-07-23T01:24:31;3.83;;;3.53;;
32365;SDS011;18837;46.832;16.838;2022-07-23T01:26:57;4.10;;;3.80;;
32365;SDS011;18837;46.832;16.838;2022-07-23T01:29:23;4.30;;;3.57;;
32365;SDS011;18837;46.832;16.838;2022-07-23T01:31:48;4.17;;;3.77;;
32365;SDS011;18837;46.832;16.838;2022-07-23T01:34:14;3.63;;;3.33;;
32365;SDS011;18837;46.832;16.838;2022-07-23T01:36:40;4.60;;;3.80;;
32365;SDS011;18837;46.832;16.838;2022-07-23T01:39:07;3.80;;;3.50;;
32365;SDS011;18837;46.832;16.838;2022-07-23T01:41:32;4.27;;;3.87;;
32365;SDS011;18837;46.832;16.838;2022-07-23T01:43:59;3.57;;;3.10;;
32365;SDS011;18837;46.832;16.838;2022-07-23T01:46:25;3.83;;;3.53;;
32365;SDS011;18837;46.832;16.838;2022-07-23T01:48:50;3.40;;;3.20;;
32365;SDS011;18837;46.832;16.838;2022-07-23T01:51:16;5.10;;;3.63;;
32365;SDS011;18837;46.832;16.838;2022-07-23T01:53:42;3.53;;;3.30;;
32365;SDS011;18837;46.832;16.838;2022-07-23T01:56:08;3.90;;;3.50;;
32365;SDS011;18837;46.832;16.838;2022-07-23T01:58:33;4.03;;;3.50;;
32365;SDS011;18837;46.832;16.838;2022-07-23T02:00:59;3.90;;;3.30;;
32365;SDS011;18837;46.832;16.838;2022-07-23T02:03:25;3.90;;;3.43;;
32365;SDS011;18837;46.832;16.838;2022-07-23T02:05:51;3.63;;;3.33;;
32365;SDS011;18837;46.832;16.838;2022-07-23T02:08:17;4.17;;;3.87;;
32365;SDS011;18837;46.832;16.838;2022-07-23T02:10:43;3.93;;;3.63;;
32365;SDS011;18837;46.832;16.838;2022-07-23T02:13:09;3.67;;;3.37;;
32365;SDS011;18837;46.832;16.838;2022-07-23T02:15:35;4.20;;;3.43;;
32365;SDS011;18837;46.832;16.838;2022-07-23T02:18:00;4.97;;;3.53;;
32365;SDS011;18837;46.832;16.838;2022-07-23T02:20:26;3.93;;;3.63;;
32365;SDS011;18837;46.832;16.838;2022-07-23T02:22:52;4.23;;;3.40;;
32365;SDS011;18837;46.832;16.838;2022-07-23T02:25:18;3.50;;;3.30;;
32365;SDS011;18837;46.832;16.838;2022-07-23T02:27:43;5.63;;;3.50;;
32365;SDS011;18837;46.832;16.838;2022-07-23T02:30:09;4.10;;;3.80;;
32365;SDS011;18837;46.832;16.838;2022-07-23T02:32:35;4.00;;;3.70;;
32365;SDS011;18837;46.832;16.838;2022-07-23T02:35:02;4.10;;;3.70;;
32365;SDS011;18837;46.832;16.838;2022-07-23T02:37:28;3.70;;;3.30;;
32365;SDS011;18837;46.832;16.838;2022-07-23T02:39:54;3.53;;;3.23;;
32365;SDS011;18837;46.832;16.838;2022-07-23T02:42:20;3.60;;;3.40;;
32365;SDS011;18837;46.832;16.838;2022-07-23T02:44:46;3.70;;;3.40;;
32365;SDS011;18837;46.832;16.838;2022-07-23T02:47:12;4.20;;;3.80;;
32365;SDS011;18837;46.832;16.838;2022-07-23T02:49:37;4.10;;;3.77;;
32365;SDS011;18837;46.832;16.838;2022-07-23T02:52:03;3.70;;;3.40;;
32365;SDS011;18837;46.832;16.838;2022-07-23T02:54:29;3.70;;;3.40;;
32365;SDS011;18837;46.832;16.838;2022-07-23T02:56:55;3.77;;;3.40;;
32365;SDS011;18837;46.832;16.838;2022-07-23T02:59:20;5.23;;;3.93;;
32365;SDS011;18837;46.832;16.838;2022-07-23T03:01:47;3.70;;;3.40;;
32365;SDS011;18837;46.832;16.838;2022-07-23T03:04:25;3.43;;;3.20;;
32365;SDS011;18837;46.832;16.838;2022-07-23T03:06:51;3.53;;;3.23;;
32365;SDS011;18837;46.832;16.838;2022-07-23T03:09:17;3.80;;;3.43;;
32365;SDS011;18837;46.832;16.838;2022-07-23T03:11:43;3.73;;;3.40;;
32365;SDS011;18837;46.832;16.838;2022-07-23T03:14:09;4.40;;;3.60;;
32365;SDS011;18837;46.832;16.838;2022-07-23T03:16:38;3.63;;;3.33;;
32365;SDS011;18837;46.832;16.838;2022-07-23T03:19:03;3.60;;;3.30;;
32365;SDS011;18837;46.832;16.838;2022-07-23T03:21:29;3.67;;;3.40;;
32365;SDS011;18837;46.832;16.838;2022-07-23T03:23:55;3.70;;;3.27;;
32365;SDS011;18837;46.832;16.838;2022-07-23T03:26:20;3.70;;;3.30;;
32365;SDS011;18837;46.832;16.838;2022-07-23T03:28:50;3.77;;;3.47;;
32365;SDS011;18837;46.832;16.838;2022-07-23T03:31:15;3.43;;;3.23;;
32365;SDS011;18837;46.832;16.838;2022-07-23T03:33:41;4.00;;;3.70;;
32365;SDS011;18837;46.832;16.838;2022-07-23T03:36:10;4.80;;;3.43;;
32365;SDS011;18837;46.832;16.838;2022-07-23T03:38:35;4.60;;;3.43;;
32365;SDS011;18837;46.832;16.838;2022-07-23T03:41:01;3.80;;;3.50;;
32365;SDS011;18837;46.832;16.838;2022-07-23T03:43:27;3.90;;;3.60;;
32365;SDS011;18837;46.832;16.838;2022-07-23T03:45:52;4.10;;;3.80;;
32365;SDS011;18837;46.832;16.838;2022-07-23T03:48:18;4.00;;;3.50;;
32365;SDS011;18837;46.832;16.838;2022-07-23T03:50:44;3.70;;;3.40;;
32365;SDS011;18837;46.832;16.838;2022-07-23T03:53:10;4.03;;;3.73;;
32365;SDS011;18837;46.832;16.838;2022-07-23T03:55:35;3.50;;;3.20;;
32365;SDS011;18837;46.832;16.838;2022-07-23T03:58:01;4.23;;;3.40;;
32365;SDS011;18837;46.832;16.838;2022-07-23T04:00:27;3.97;;;3.67;;
32365;SDS011;18837;46.832;16.838;2022-07-23T04:02:53;4.10;;;3.80;;
32365;SDS011;18837;46.832;16.838;2022-07-23T04:05:18;3.83;;;3.53;;
32365;SDS011;18837;46.832;16.838;2022-07-23T04:07:44;4.47;;;3.83;;
32365;SDS011;18837;46.832;16.838;2022-07-23T04:10:15;3.70;;;3.37;;
32365;SDS011;18837;46.832;16.838;2022-07-23T04:12:41;4.30;;;3.90;;
32365;SDS011;18837;46.832;16.838;2022-07-23T04:15:07;3.60;;;3.30;;
32365;SDS011;18837;46.832;16.838;2022-07-23T04:17:33;3.53;;;3.23;;
32365;SDS011;18837;46.832;16.838;2022-07-23T04:19:59;3.80;;;3.50;;
32365;SDS011;18837;46.832;16.838;2022-07-23T04:22:25;5.13;;;4.23;;
32365;SDS011;18837;46.832;16.838;2022-07-23T04:24:51;4.17;;;3.80;;
32365;SDS011;18837;46.832;16.838;2022-07-23T04:27:22;3.90;;;3.60;;
32365;SDS011;18837;46.832;16.838;2022-07-23T04:29:48;4.43;;;4.00;;
32365;SDS011;18837;46.832;16.838;2022-07-23T04:32:14;4.60;;;3.73;;
32365;SDS011;18837;46.832;16.838;2022-07-23T04:34:39;4.80;;;4.30;;
32365;SDS011;18837;46.832;16.838;2022-07-23T04:37:05;4.80;;;4.30;;
32365;SDS011;18837;46.832;16.838;2022-07-23T04:39:31;5.53;;;4.23;;
32365;SDS011;18837;46.832;16.838;2022-07-23T04:41:57;5.03;;;4.63;;
32365;SDS011;18837;46.832;16.838;2022-07-23T04:44:23;4.53;;;4.17;;
32365;SDS011;18837;46.832;16.838;2022-07-23T04:46:48;4.83;;;4.33;;
32365;SDS011;18837;46.832;16.838;2022-07-23T04:49:14;4.93;;;4.50;;
32365;SDS011;18837;46.832;16.838;2022-07-23T04:51:39;4.90;;;4.50;;
32365;SDS011;18837;46.832;16.838;2022-07-23T04:54:05;4.80;;;4.27;;
32365;SDS011;18837;46.832;16.838;2022-07-23T04:56:31;5.27;;;4.70;;
32365;SDS011;18837;46.832;16.838;2022-07-23T04:58:57;4.97;;;4.47;;
32365;SDS011;18837;46.832;16.838;2022-07-23T05:01:22;4.87;;;4.30;;
32365;SDS011;18837;46.832;16.838;2022-07-23T05:03:48;5.50;;;4.67;;
32365;SDS011;18837;46.832;16.838;2022-07-23T05:06:14;4.67;;;4.27;;
32365;SDS011;18837;46.832;16.838;2022-07-23T05:08:40;5.20;;;4.63;;
32365;SDS011;18837;46.832;16.838;2022-07-23T05:11:06;4.10;;;3.80;;
32365;SDS011;18837;46.832;16.838;2022-07-23T05:13:32;5.30;;;4.73;;
32365;SDS011;18837;46.832;16.838;2022-07-23T05:15:59;4.73;;;4.23;;
32365;SDS011;18837;46.832;16.838;2022-07-23T05:18:25;6.83;;;4.80;;
32365;SDS011;18837;46.832;16.838;2022-07-23T05:20:51;5.03;;;4.53;;
32365;SDS011;18837;46.832;16.838;2022-07-23T05:23:17;4.20;;;3.80;;
32365;SDS011;18837;46.832;16.838;2022-07-23T05:25:42;4.93;;;4.47;;
32365;SDS011;18837;46.832;16.838;2022-07-23T05:28:08;4.70;;;4.27;;
32365;SDS011;18837;46.832;16.838;2022-07-23T05:30:34;5.40;;;4.13;;
32365;SDS011;18837;46.832;16.838;2022-07-23T05:33:03;4.37;;;4.00;;
32365;SDS011;18837;46.832;16.838;2022-07-23T05:35:32;4.57;;;4.10;;
32365;SDS011;18837;46.832;16.838;2022-07-23T05:37:58;4.57;;;4.17;;
32365;SDS011;18837;46.832;16.838;2022-07-23T05:40:24;5.53;;;4.87;;
32365;SDS011;18837;46.832;16.838;2022-07-23T05:42:49;4.30;;;3.90;;
32365;SDS011;18837;46.832;16.838;2022-07-23T05:45:15;4.57;;;4.17;;
32365;SDS011;18837;46.832;16.838;2022-07-23T05:50:08;4.37;;;3.97;;
32365;SDS011;18837;46.832;16.838;2022-07-23T05:52:34;4.73;;;4.33;;
32365;SDS011;18837;46.832;16.838;2022-07-23T05:54:59;4.83;;;4.43;;
32365;SDS011;18837;46.832;16.838;2022-07-23T05:57:25;6.23;;;4.10;;
32365;SDS011;18837;46.832;16.838;2022-07-23T05:59:51;4.30;;;3.97;;
32365;SDS011;18837;46.832;16.838;2022-07-23T06:02:16;5.13;;;4.10;;
32365;SDS011;18837;46.832;16.838;2022-07-23T06:04:42;4.80;;;4.10;;
32365;SDS011;18837;46.832;16.838;2022-07-23T06:07:13;5.17;;;4.67;;
32365;SDS011;18837;46.832;16.838;2022-07-23T06:09:39;4.57;;;4.17;;
32365;SDS011;18837;46.832;16.838;2022-07-23T06:12:04;4.53;;;4.13;;
32365;SDS011;18837;46.832;16.838;2022-07-23T06:14:30;5.47;;;4.53;;
32365;SDS011;18837;46.832;16.838;2022-07-23T06:16:56;4.60;;;4.20;;
32365;SDS011;18837;46.832;16.838;2022-07-23T06:19:22;4.73;;;4.33;;
32365;SDS011;18837;46.832;16.838;2022-07-23T06:21:53;4.77;;;4.23;;
32365;SDS011;18837;46.832;16.838;2022-07-23T06:24:25;4.37;;;4.00;;
32365;SDS011;18837;46.832;16.838;2022-07-23T06:26:51;4.67;;;3.87;;
32365;SDS011;18837;46.832;16.838;2022-07-23T06:29:16;4.67;;;4.27;;
32365;SDS011;18837;46.832;16.838;2022-07-23T06:31:42;4.90;;;4.43;;
32365;SDS011;18837;46.832;16.838;2022-07-23T06:34:08;4.70;;;4.30;;
32365;SDS011;18837;46.832;16.838;2022-07-23T06:36:33;4.50;;;4.10;;
32365;SDS011;18837;46.832;16.838;2022-07-23T06:38:59;5.00;;;4.50;;
32365;SDS011;18837;46.832;16.838;2022-07-23T06:41:25;4.40;;;4.00;;
32365;SDS011;18837;46.832;16.838;2022-07-23T06:43:50;4.50;;;4.10;;
32365;SDS011;18837;46.832;16.838;2022-07-23T06:46:16;4.63;;;3.93;;
32365;SDS011;18837;46.832;16.838;2022-07-23T06:48:42;4.47;;;4.07;;
32365;SDS011;18837;46.832;16.838;2022-07-23T06:51:07;3.90;;;3.60;;
32365;SDS011;18837;46.832;16.838;2022-07-23T06:53:33;4.33;;;3.93;;
32365;SDS011;18837;46.832;16.838;2022-07-23T06:56:08;4.00;;;3.70;;
32365;SDS011;18837;46.832;16.838;2022-07-23T06:58:39;4.57;;;4.10;;
32365;SDS011;18837;46.832;16.838;2022-07-23T07:01:05;4.50;;;4.10;;
32365;SDS011;18837;46.832;16.838;2022-07-23T07:03:31;4.10;;;3.80;;
32365;SDS011;18837;46.832;16.838;2022-07-23T07:05:56;4.33;;;3.90;;
32365;SDS011;18837;46.832;16.838;2022-07-23T07:08:22;4.07;;;3.77;;
32365;SDS011;18837;46.832;16.838;2022-07-23T07:10:49;3.87;;;3.57;;
32365;SDS011;18837;46.832;16.838;2022-07-23T07:13:15;4.33;;;3.93;;
32365;SDS011;18837;46.832;16.838;2022-07-23T07:15:40;4.00;;;3.70;;
32365;SDS011;18837;46.832;16.838;2022-07-23T07:18:06;3.90;;;3.60;;
32365;SDS011;18837;46.832;16.838;2022-07-23T07:20:32;4.07;;;3.77;;
32365;SDS011;18837;46.832;16.838;2022-07-23T07:22:58;4.20;;;3.90;;
32365;SDS011;18837;46.832;16.838;2022-07-23T07:25:23;3.80;;;3.50;;
32365;SDS011;18837;46.832;16.838;2022-07-23T07:27:49;4.13;;;3.83;;
32365;SDS011;18837;46.832;16.838;2022-07-23T07:30:20;4.23;;;3.93;;
32365;SDS011;18837;46.832;16.838;2022-07-23T07:32:58;4.07;;;3.77;;
32365;SDS011;18837;46.832;16.838;2022-07-23T07:35:29;4.77;;;4.33;;
32365;SDS011;18837;46.832;16.838;2022-07-23T07:37:56;4.37;;;4.07;;
32365;SDS011;18837;46.832;16.838;2022-07-23T07:40:21;4.43;;;3.83;;
32365;SDS011;18837;46.832;16.838;2022-07-23T07:42:48;4.20;;;3.80;;
32365;SDS011;18837;46.832;16.838;2022-07-23T07:45:15;4.60;;;4.20;;
32365;SDS011;18837;46.832;16.838;2022-07-23T07:47:42;4.47;;;4.07;;
32365;SDS011;18837;46.832;16.838;2022-07-23T07:50:08;3.70;;;3.40;;
32365;SDS011;18837;46.832;16.838;2022-07-23T07:52:34;4.10;;;3.80;;
32365;SDS011;18837;46.832;16.838;2022-07-23T07:55:04;3.70;;;3.40;;
32365;SDS011;18837;46.832;16.838;2022-07-23T07:57:30;4.53;;;4.10;;
32365;SDS011;18837;46.832;16.838;2022-07-23T07:59:56;4.07;;;3.77;;
32365;SDS011;18837;46.832;16.838;2022-07-23T08:02:22;4.37;;;3.80;;
32365;SDS011;18837;46.832;16.838;2022-07-23T08:04:51;4.03;;;3.63;;
32365;SDS011;18837;46.832;16.838;2022-07-23T08:07:26;3.80;;;3.50;;
32365;SDS011;18837;46.832;16.838;2022-07-23T08:09:53;4.07;;;3.63;;
32365;SDS011;18837;46.832;16.838;2022-07-23T08:12:18;4.13;;;3.83;;
32365;SDS011;18837;46.832;16.838;2022-07-23T08:14:44;4.40;;;4.00;;
32365;SDS011;18837;46.832;16.838;2022-07-23T08:17:10;4.20;;;3.90;;
32365;SDS011;18837;46.832;16.838;2022-07-23T08:19:35;4.77;;;3.90;;
32365;SDS011;18837;46.832;16.838;2022-07-23T08:22:01;4.23;;;3.93;;
32365;SDS011;18837;46.832;16.838;2022-07-23T08:24:29;4.30;;;3.90;;
32365;SDS011;18837;46.832;16.838;2022-07-23T08:26:54;5.37;;;4.30;;
32365;SDS011;18837;46.832;16.838;2022-07-23T08:29:20;4.27;;;3.87;;
32365;SDS011;18837;46.832;16.838;2022-07-23T08:31:46;5.70;;;4.50;;
32365;SDS011;18837;46.832;16.838;2022-07-23T08:34:12;4.20;;;3.90;;
32365;SDS011;18837;46.832;16.838;2022-07-23T08:36:38;4.90;;;4.07;;
32365;SDS011;18837;46.832;16.838;2022-07-23T08:39:03;6.23;;;4.63;;
32365;SDS011;18837;46.832;16.838;2022-07-23T08:41:29;6.37;;;4.60;;
32365;SDS011;18837;46.832;16.838;2022-07-23T08:43:55;6.07;;;4.67;;
32365;SDS011;18837;46.832;16.838;2022-07-23T08:46:22;7.00;;;4.23;;
32365;SDS011;18837;46.832;16.838;2022-07-23T08:48:49;4.93;;;4.53;;
32365;SDS011;18837;46.832;16.838;2022-07-23T08:51:15;8.60;;;4.30;;
32365;SDS011;18837;46.832;16.838;2022-07-23T08:53:42;5.83;;;4.13;;
32365;SDS011;18837;46.832;16.838;2022-07-23T08:56:09;5.03;;;4.20;;
32365;SDS011;18837;46.832;16.838;2022-07-23T08:58:35;4.93;;;4.50;;
32365;SDS011;18837;46.832;16.838;2022-07-23T09:01:01;5.00;;;4.47;;
32365;SDS011;18837;46.832;16.838;2022-07-23T09:03:31;4.80;;;4.30;;
32365;SDS011;18837;46.832;16.838;2022-07-23T09:05:58;4.87;;;4.33;;
32365;SDS011;18837;46.832;16.838;2022-07-23T09:08:39;4.50;;;4.20;;
32365;SDS011;18837;46.832;16.838;2022-07-23T09:11:09;8.70;;;5.00;;
32365;SDS011;18837;46.832;16.838;2022-07-23T09:13:38;8.83;;;5.00;;
32365;SDS011;18837;46.832;16.838;2022-07-23T09:16:17;11.27;;;5.17;;
32365;SDS011;18837;46.832;16.838;2022-07-23T09:21:23;8.93;;;4.60;;
32365;SDS011;18837;46.832;16.838;2022-07-23T09:24:00;11.53;;;5.03;;
32365;SDS011;18837;46.832;16.838;2022-07-23T09:26:31;6.23;;;4.90;;
32365;SDS011;18837;46.832;16.838;2022-07-23T09:31:25;8.90;;;4.87;;
32365;SDS011;18837;46.832;16.838;2022-07-23T09:34:07;9.03;;;4.90;;
32365;SDS011;18837;46.832;16.838;2022-07-23T09:36:43;7.87;;;4.93;;
32365;SDS011;18837;46.832;16.838;2022-07-23T09:39:09;9.60;;;4.87;;
32365;SDS011;18837;46.832;16.838;2022-07-23T09:41:37;10.37;;;5.57;;
32365;SDS011;18837;46.832;16.838;2022-07-23T09:44:07;10.23;;;4.93;;
32365;SDS011;18837;46.832;16.838;2022-07-23T09:46:34;7.90;;;5.07;;
32365;SDS011;18837;46.832;16.838;2022-07-23T09:49:00;8.70;;;4.90;;
32365;SDS011;18837;46.832;16.838;2022-07-23T09:51:43;7.33;;;4.87;;
32365;SDS011;18837;46.832;16.838;2022-07-23T09:54:20;7.43;;;4.80;;
32365;SDS011;18837;46.832;16.838;2022-07-23T09:56:46;5.60;;;5.00;;
32365;SDS011;18837;46.832;16.838;2022-07-23T09:59:13;8.33;;;5.03;;
32365;SDS011;18837;46.832;16.838;2022-07-23T10:01:43;7.00;;;5.00;;
32365;SDS011;18837;46.832;16.838;2022-07-23T10:04:10;6.33;;;4.77;;
32365;SDS011;18837;46.832;16.838;2022-07-23T10:06:39;9.07;;;4.70;;
32365;SDS011;18837;46.832;16.838;2022-07-23T10:09:05;7.63;;;4.80;;
32365;SDS011;18837;46.832;16.838;2022-07-23T10:11:33;6.40;;;5.03;;
32365;SDS011;18837;46.832;16.838;2022-07-23T10:14:00;7.70;;;4.47;;
32365;SDS011;18837;46.832;16.838;2022-07-23T10:16:29;7.20;;;4.80;;
32365;SDS011;18837;46.832;16.838;2022-07-23T10:18:55;4.80;;;4.40;;
32365;SDS011;18837;46.832;16.838;2022-07-23T10:21:25;5.83;;;4.73;;
32365;SDS011;18837;46.832;16.838;2022-07-23T10:24:04;6.53;;;4.70;;
32365;SDS011;18837;46.832;16.838;2022-07-23T10:27:02;5.13;;;4.63;;
32365;SDS011;18837;46.832;16.838;2022-07-23T10:32:37;5.10;;;4.60;;
32365;SDS011;18837;46.832;16.838;2022-07-23T10:40:56;6.17;;;4.63;;
32365;SDS011;18837;46.832;16.838;2022-07-23T10:43:26;6.23;;;4.60;;
32365;SDS011;18837;46.832;16.838;2022-07-23T10:45:53;5.67;;;4.60;;
32365;SDS011;18837;46.832;16.838;2022-07-23T10:48:20;6.73;;;5.00;;
32365;SDS011;18837;46.832;16.838;2022-07-23T10:56:16;5.30;;;4.80;;
32365;SDS011;18837;46.832;16.838;2022-07-23T10:59:05;6.13;;;4.83;;
32365;SDS011;18837;46.832;16.838;2022-07-23T11:01:31;5.60;;;5.10;;
32365;SDS011;18837;46.832;16.838;2022-07-23T11:03:59;5.23;;;4.83;;
32365;SDS011;18837;46.832;16.838;2022-07-23T11:07:06;5.60;;;4.70;;
32365;SDS011;18837;46.832;16.838;2022-07-23T11:17:22;5.27;;;4.77;;
32365;SDS011;18837;46.832;16.838;2022-07-23T11:25:01;5.30;;;4.90;;
32365;SDS011;18837;46.832;16.838;2022-07-23T11:30:10;6.20;;;5.53;;
32365;SDS011;18837;46.832;16.838;2022-07-23T11:35:34;5.60;;;5.20;;
32365;SDS011;18837;46.832;16.838;2022-07-23T11:38:05;6.97;;;6.33;;
32365;SDS011;18837;46.832;16.838;2022-07-23T11:40:46;7.30;;;5.93;;
32365;SDS011;18837;46.832;16.838;2022-07-23T11:43:17;7.47;;;5.60;;
32365;SDS011;18837;46.832;16.838;2022-07-23T11:45:44;6.40;;;5.80;;
32365;SDS011;18837;46.832;16.838;2022-07-23T11:48:21;6.67;;;6.10;;
32365;SDS011;18837;46.832;16.838;2022-07-23T11:50:49;6.00;;;5.50;;
32365;SDS011;18837;46.832;16.838;2022-07-23T11:53:27;6.30;;;5.70;;
32365;SDS011;18837;46.832;16.838;2022-07-23T11:56:07;6.63;;;6.00;;
32365;SDS011;18837;46.832;16.838;2022-07-23T11:58:35;6.40;;;5.80;;
32365;SDS011;18837;46.832;16.838;2022-07-23T12:01:01;6.33;;;5.70;;
32365;SDS011;18837;46.832;16.838;2022-07-23T12:03:27;7.47;;;6.00;;
32365;SDS011;18837;46.832;16.838;2022-07-23T12:05:56;6.93;;;5.77;;
32365;SDS011;18837;46.832;16.838;2022-07-23T12:08:22;6.43;;;5.83;;
32365;SDS011;18837;46.832;16.838;2022-07-23T12:13:38;7.27;;;5.87;;
32365;SDS011;18837;46.832;16.838;2022-07-23T12:16:04;6.20;;;5.60;;
32365;SDS011;18837;46.832;16.838;2022-07-23T12:18:30;7.07;;;6.43;;
32365;SDS011;18837;46.832;16.838;2022-07-23T12:20:57;6.93;;;6.23;;
32365;SDS011;18837;46.832;16.838;2022-07-23T12:23:28;7.27;;;6.67;;
32365;SDS011;18837;46.832;16.838;2022-07-23T12:25:53;7.63;;;6.93;;
32365;SDS011;18837;46.832;16.838;2022-07-23T12:28:20;6.53;;;5.97;;
32365;SDS011;18837;46.832;16.838;2022-07-23T12:30:53;7.60;;;6.90;;
32365;SDS011;18837;46.832;16.838;2022-07-23T12:33:23;7.13;;;6.47;;
32365;SDS011;18837;46.832;16.838;2022-07-23T12:35:55;6.93;;;6.33;;
32365;SDS011;18837;46.832;16.838;2022-07-23T12:38:22;7.27;;;6.63;;
32365;SDS011;18837;46.832;16.838;2022-07-23T12:46:14;9.67;;;7.23;;
32365;SDS011;18837;46.832;16.838;2022-07-23T12:51:15;9.30;;;7.67;;
32365;SDS011;18837;46.832;16.838;2022-07-23T12:53:46;9.07;;;7.47;;
32365;SDS011;18837;46.832;16.838;2022-07-23T12:56:20;8.23;;;7.53;;
32365;SDS011;18837;46.832;16.838;2022-07-23T13:01:25;10.73;;;7.50;;
32365;SDS011;18837;46.832;16.838;2022-07-23T13:06:34;9.70;;;7.73;;
32365;SDS011;18837;46.832;16.838;2022-07-23T13:09:02;8.03;;;7.23;;
32365;SDS011;18837;46.832;16.838;2022-07-23T13:11:29;7.93;;;7.23;;
32365;SDS011;18837;46.832;16.838;2022-07-23T13:13:55;8.10;;;7.30;;
32365;SDS011;18837;46.832;16.838;2022-07-23T13:16:21;8.30;;;7.60;;
32365;SDS011;18837;46.832;16.838;2022-07-23T13:18:57;8.20;;;7.33;;
32365;SDS011;18837;46.832;16.838;2022-07-23T13:21:23;8.73;;;7.97;;
32365;SDS011;18837;46.832;16.838;2022-07-23T13:23:50;8.47;;;7.77;;
32365;SDS011;18837;46.832;16.838;2022-07-23T13:26:16;9.33;;;8.43;;
32365;SDS011;18837;46.832;16.838;2022-07-23T13:28:42;8.43;;;7.37;;
32365;SDS011;18837;46.832;16.838;2022-07-23T13:31:08;8.37;;;7.50;;
32365;SDS011;18837;46.832;16.838;2022-07-23T13:33:38;8.57;;;7.80;;
32365;SDS011;18837;46.832;16.838;2022-07-23T13:36:04;8.37;;;7.47;;
32365;SDS011;18837;46.832;16.838;2022-07-23T13:38:30;8.20;;;7.47;;
32365;SDS011;18837;46.832;16.838;2022-07-23T13:40:57;8.40;;;7.77;;
32365;SDS011;18837;46.832;16.838;2022-07-23T13:43:24;7.87;;;7.17;;
32365;SDS011;18837;46.832;16.838;2022-07-23T13:45:51;8.70;;;8.00;;
32365;SDS011;18837;46.832;16.838;2022-07-23T13:48:18;8.30;;;7.50;;
32365;SDS011;18837;46.832;16.838;2022-07-23T13:50:47;8.07;;;7.47;;
32365;SDS011;18837;46.832;16.838;2022-07-23T13:53:15;8.53;;;7.77;;
32365;SDS011;18837;46.832;16.838;2022-07-23T13:55:46;9.27;;;8.33;;
32365;SDS011;18837;46.832;16.838;2022-07-23T13:58:13;8.70;;;7.97;;
32365;SDS011;18837;46.832;16.838;2022-07-23T14:00:41;8.10;;;7.30;;
32365;SDS011;18837;46.832;16.838;2022-07-23T14:03:09;8.07;;;7.37;;
32365;SDS011;18837;46.832;16.838;2022-07-23T14:05:35;8.53;;;7.73;;
32365;SDS011;18837;46.832;16.838;2022-07-23T14:08:02;8.83;;;8.10;;
32365;SDS011;18837;46.832;16.838;2022-07-23T14:10:28;8.27;;;7.57;;
32365;SDS011;18837;46.832;16.838;2022-07-23T14:12:54;8.10;;;7.43;;
32365;SDS011;18837;46.832;16.838;2022-07-23T14:15:22;8.67;;;7.83;;
32365;SDS011;18837;46.832;16.838;2022-07-23T14:17:49;8.27;;;7.47;;
32365;SDS011;18837;46.832;16.838;2022-07-23T14:20:15;8.53;;;7.83;;
32365;SDS011;18837;46.832;16.838;2022-07-23T14:22:42;8.87;;;8.07;;
32365;SDS011;18837;46.832;16.838;2022-07-23T14:25:08;7.90;;;7.30;;
32365;SDS011;18837;46.832;16.838;2022-07-23T14:27:36;8.10;;;7.50;;
32365;SDS011;18837;46.832;16.838;2022-07-23T14:30:03;7.97;;;7.37;;
32365;SDS011;18837;46.832;16.838;2022-07-23T14:32:30;8.17;;;7.57;;
32365;SDS011;18837;46.832;16.838;2022-07-23T14:34:56;9.00;;;8.20;;
32365;SDS011;18837;46.832;16.838;2022-07-23T14:37:21;8.33;;;7.63;;
32365;SDS011;18837;46.832;16.838;2022-07-23T14:39:47;10.93;;;8.30;;
32365;SDS011;18837;46.832;16.838;2022-07-23T14:42:13;12.33;;;7.40;;
32365;SDS011;18837;46.832;16.838;2022-07-23T14:44:39;7.80;;;7.07;;
32365;SDS011;18837;46.832;16.838;2022-07-23T14:47:07;10.57;;;6.93;;
32365;SDS011;18837;46.832;16.838;2022-07-23T14:49:33;7.50;;;6.87;;
32365;SDS011;18837;46.832;16.838;2022-07-23T14:52:00;10.13;;;7.83;;
32365;SDS011;18837;46.832;16.838;2022-07-23T14:54:27;8.70;;;7.10;;
32365;SDS011;18837;46.832;16.838;2022-07-23T14:56:53;8.43;;;7.23;;
32365;SDS011;18837;46.832;16.838;2022-07-23T14:59:20;7.70;;;6.93;;
32365;SDS011;18837;46.832;16.838;2022-07-23T15:01:46;8.37;;;6.77;;
32365;SDS011;18837;46.832;16.838;2022-07-23T15:04:12;9.10;;;6.70;;
32365;SDS011;18837;46.832;16.838;2022-07-23T15:06:38;8.73;;;6.33;;
32365;SDS011;18837;46.832;16.838;2022-07-23T15:09:04;13.03;;;6.37;;
32365;SDS011;18837;46.832;16.838;2022-07-23T15:11:30;11.07;;;6.30;;
32365;SDS011;18837;46.832;16.838;2022-07-23T15:13:59;6.93;;;6.33;;
32365;SDS011;18837;46.832;16.838;2022-07-23T15:16:31;6.80;;;6.10;;
32365;SDS011;18837;46.832;16.838;2022-07-23T15:18:57;7.27;;;6.57;;
32365;SDS011;18837;46.832;16.838;2022-07-23T15:21:23;7.13;;;6.47;;
32365;SDS011;18837;46.832;16.838;2022-07-23T15:23:49;7.53;;;6.67;;
32365;SDS011;18837;46.832;16.838;2022-07-23T15:26:15;6.70;;;6.10;;
32365;SDS011;18837;46.832;16.838;2022-07-23T15:28:43;7.20;;;5.87;;
32365;SDS011;18837;46.832;16.838;2022-07-23T15:31:09;7.20;;;6.00;;
32365;SDS011;18837;46.832;16.838;2022-07-23T15:33:35;6.50;;;5.90;;
32365;SDS011;18837;46.832;16.838;2022-07-23T15:36:01;7.10;;;6.40;;